createdAt,value
2018-11-23T00:01:49.540Z,88.03
2018-11-23T00:04:19.013Z,82.57
2018-11-23T00:06:48.443Z,82.27
2018-11-23T00:09:17.747Z,87.57
2018-11-23T00:11:47.374Z,83.90
2018-11-23T00:14:16.770Z,82.23
2018-11-23T00:16:46.047Z,81.73
2018-11-23T00:19:15.364Z,81.92
2018-11-23T00:21:44.592Z,82.27
2018-11-23T00:24:13.935Z,84.70
2018-11-23T00:26:43.215Z,84.40
2018-11-23T00:29:12.510Z,84.40
2018-11-23T00:31:41.766Z,84.13
2018-11-23T00:34:11.079Z,86.30
2018-11-23T00:36:40.384Z,86.03
2018-11-23T00:39:09.693Z,80.63
2018-11-23T00:41:39.020Z,80.87
2018-11-23T00:44:08.299Z,87.27
2018-11-23T00:46:37.652Z,86.97
2018-11-23T00:49:07.017Z,86.23
2018-11-23T00:51:36.889Z,88.80
2018-11-23T00:54:06.761Z,82.80
2018-11-23T00:56:36.786Z,86.57
2018-11-23T00:59:06.800Z,87.25
2018-11-23T01:01:42.269Z,95.07
2018-11-23T01:04:11.551Z,86.50
2018-11-23T01:06:40.890Z,88.42
2018-11-23T01:09:13.714Z,85.40
2018-11-23T01:11:43.777Z,82.70
2018-11-23T01:14:13.079Z,86.80
2018-11-23T01:16:42.386Z,87.40
2018-11-23T01:19:11.709Z,83.30
2018-11-23T01:21:41.061Z,87.47
2018-11-23T01:24:10.326Z,83.23
2018-11-23T01:26:39.666Z,90.70
2018-11-23T01:29:08.916Z,87.83
2018-11-23T01:31:38.266Z,83.07
2018-11-23T01:34:07.575Z,87.23
2018-11-23T01:36:37.210Z,85.57
2018-11-23T01:39:10.041Z,87.70
2018-11-23T01:41:39.647Z,92.40
2018-11-23T01:44:09.469Z,90.40
2018-11-23T01:46:38.794Z,86.63
2018-11-23T01:49:08.078Z,90.57
2018-11-23T01:51:37.729Z,95.35
2018-11-23T01:54:07.729Z,87.50
2018-11-23T01:56:37.763Z,90.75
2018-11-23T01:59:07.799Z,93.40
2018-11-23T02:01:37.833Z,89.30
2018-11-23T02:04:07.880Z,92.55
2018-11-23T02:06:37.898Z,90.40
2018-11-23T02:09:08.929Z,94.42
2018-11-23T02:11:38.159Z,88.23
2018-11-23T02:14:07.999Z,88.12
2018-11-23T02:16:37.947Z,89.03
2018-11-23T02:19:08.374Z,95.22
2018-11-23T02:21:38.266Z,92.82
2018-11-23T02:24:08.353Z,91.65
2018-11-23T02:26:38.298Z,86.17
2018-11-23T02:29:08.501Z,90.07
2018-11-23T02:31:38.617Z,89.77
2018-11-23T02:34:08.435Z,88.10
2018-11-23T02:36:38.437Z,90.10
2018-11-23T02:39:09.344Z,98.00
2018-11-23T02:41:38.751Z,85.33
2018-11-23T02:44:08.396Z,91.72
2018-11-23T02:46:38.370Z,88.82
2018-11-23T02:49:08.485Z,92.40
2018-11-23T02:51:38.450Z,90.70
2018-11-23T02:54:08.470Z,99.40
2018-11-23T02:56:43.141Z,84.75
2018-11-23T02:59:12.378Z,90.57
2018-11-23T03:01:41.856Z,93.80
2018-11-23T03:04:11.892Z,98.77
2018-11-23T03:06:41.213Z,90.67
2018-11-23T03:09:10.919Z,91.93
2018-11-23T03:11:41.273Z,92.50
2018-11-23T03:14:10.696Z,96.87
2018-11-23T03:16:40.010Z,95.97
2018-11-23T03:19:09.560Z,100.02
2018-11-23T03:21:39.530Z,96.28
2018-11-23T03:24:09.450Z,92.97
2018-11-23T03:26:39.945Z,95.23
2018-11-23T03:29:09.905Z,91.35
2018-11-23T03:31:39.873Z,94.15
2018-11-23T03:34:09.851Z,94.58
2018-11-23T03:36:39.935Z,98.52
2018-11-23T03:39:10.083Z,93.45
2018-11-23T03:41:39.890Z,97.47
2018-11-23T03:44:09.984Z,97.40
2018-11-23T03:46:39.931Z,95.20
2018-11-23T03:49:10.010Z,104.78
2018-11-23T03:51:39.950Z,89.22
2018-11-23T03:54:10.050Z,96.60
2018-11-23T03:56:40.185Z,95.07
2018-11-23T03:59:10.227Z,95.65
2018-11-23T04:01:40.195Z,100.10
2018-11-23T04:04:10.099Z,96.37
2018-11-23T04:06:40.272Z,91.55
2018-11-23T04:09:10.280Z,99.03
2018-11-23T04:11:40.295Z,90.47
2018-11-23T04:14:10.194Z,93.60
2018-11-23T04:16:40.553Z,96.92
2018-11-23T04:19:10.370Z,95.83
2018-11-23T04:21:40.450Z,93.42
2018-11-23T04:24:10.446Z,97.90
2018-11-23T04:26:40.856Z,97.13
2018-11-23T04:29:11.218Z,94.97
2018-11-23T04:31:41.056Z,92.82
2018-11-23T04:34:10.967Z,100.10
2018-11-23T04:36:41.238Z,99.32
2018-11-23T04:39:11.196Z,96.90
2018-11-23T04:41:46.238Z,92.00
2018-11-23T04:44:11.220Z,91.28
2018-11-23T04:46:41.435Z,101.55
2018-11-23T04:49:11.294Z,97.55
2018-11-23T04:51:41.304Z,99.20
2018-11-23T04:54:11.383Z,98.10
2018-11-23T04:56:41.292Z,95.55
2018-11-23T04:59:11.415Z,89.92
2018-11-23T05:01:41.401Z,94.07
2018-11-23T05:04:11.403Z,94.03
2018-11-23T05:06:41.830Z,90.25
2018-11-23T05:09:11.780Z,97.45
2018-11-23T05:11:41.859Z,89.55
2018-11-23T05:14:11.852Z,99.00
2018-11-23T05:16:41.875Z,91.00
2018-11-23T05:19:11.800Z,88.85
2018-11-23T05:21:42.010Z,95.22
2018-11-23T05:24:11.948Z,91.97
2018-11-23T05:26:42.005Z,86.15
2018-11-23T05:29:11.942Z,90.05
2018-11-23T05:31:41.990Z,92.02
2018-11-23T05:34:12.113Z,87.72
2018-11-23T05:36:42.011Z,92.78
2018-11-23T05:39:12.059Z,88.40
2018-11-23T05:41:42.018Z,87.92
2018-11-23T05:44:12.135Z,91.45
2018-11-23T05:46:42.167Z,89.35
2018-11-23T05:49:12.345Z,86.42
2018-11-23T05:51:42.102Z,97.80
2018-11-23T05:54:12.489Z,102.23
2018-11-23T05:56:42.725Z,92.82
2018-11-23T05:59:12.682Z,95.28
2018-11-23T06:01:43.073Z,99.67
2018-11-23T06:04:12.897Z,97.88
2018-11-23T06:06:42.911Z,97.35
2018-11-23T06:09:12.948Z,99.85
2018-11-23T06:11:42.815Z,93.90
2018-11-23T06:14:12.937Z,95.50
2018-11-23T06:16:43.011Z,94.90
2018-11-23T06:19:12.862Z,97.78
2018-11-23T06:21:42.961Z,93.07
2018-11-23T06:24:12.903Z,96.30
2018-11-23T06:26:43.007Z,95.47
2018-11-23T06:29:12.940Z,101.58
2018-11-23T06:31:43.001Z,102.02
2018-11-23T06:34:12.993Z,91.92
2018-11-23T06:36:43.031Z,95.30
2018-11-23T06:39:13.037Z,95.72
2018-11-23T06:41:43.061Z,94.32
2018-11-23T06:44:13.142Z,90.80
2018-11-23T06:46:43.150Z,87.95
2018-11-23T06:49:13.087Z,89.80
2018-11-23T06:51:43.526Z,87.87
2018-11-23T06:54:14.483Z,100.18
2018-11-23T06:56:43.565Z,89.22
2018-11-23T06:59:13.482Z,90.05
2018-11-23T07:01:43.836Z,86.02
2018-11-23T07:04:13.796Z,93.42
2018-11-23T07:06:43.841Z,89.03
2018-11-23T07:09:13.797Z,87.82
2018-11-23T07:11:44.253Z,87.57
2018-11-23T07:14:14.377Z,84.80
2018-11-23T07:16:44.325Z,89.83
2018-11-23T07:19:14.315Z,78.72
2018-11-23T07:26:41.350Z,85.33
2018-11-23T07:29:10.651Z,84.50
2018-11-23T07:31:39.948Z,82.33
2018-11-23T07:34:09.265Z,88.97
2018-11-23T07:36:38.577Z,87.80
2018-11-23T07:39:18.522Z,77.27
2018-11-23T07:42:12.605Z,88.17
2018-11-23T07:44:41.935Z,82.53
2018-11-23T07:47:11.206Z,85.57
2018-11-23T07:49:40.511Z,84.83
2018-11-23T07:52:09.889Z,79.73
2018-11-23T07:54:39.717Z,89.33
2018-11-23T07:57:09.749Z,83.30
2018-11-23T07:59:39.083Z,75.90
2018-11-23T08:02:10.409Z,85.80
2018-11-23T08:04:40.452Z,89.13
2018-11-23T08:07:10.865Z,80.10
2018-11-23T08:09:40.883Z,82.37
2018-11-23T08:12:10.198Z,77.73
2018-11-23T08:14:39.502Z,84.10
2018-11-23T08:17:08.825Z,78.10
2018-11-23T08:19:38.133Z,81.77
2018-11-23T08:22:07.530Z,77.63
2018-11-23T08:24:36.853Z,82.20
2018-11-23T08:27:06.274Z,84.77
2018-11-23T08:29:35.608Z,81.02
2018-11-23T08:32:05.007Z,79.50
2018-11-23T08:34:34.336Z,79.93
2018-11-23T08:37:03.650Z,82.00
2018-11-23T08:39:33.009Z,81.02
2018-11-23T08:42:02.317Z,78.42
2018-11-23T08:44:31.663Z,81.67
2018-11-23T08:47:00.931Z,79.10
2018-11-23T08:49:30.222Z,77.63
2018-11-23T08:51:59.534Z,84.47
2018-11-23T08:54:28.899Z,82.97
2018-11-23T08:56:58.197Z,83.73
2018-11-23T08:59:27.540Z,80.27
2018-11-23T09:01:56.826Z,79.37
2018-11-23T09:04:26.164Z,82.13
2018-11-23T09:06:55.504Z,75.77
2018-11-23T09:09:24.769Z,79.73
2018-11-23T09:11:54.129Z,73.87
2018-11-23T09:14:23.402Z,79.83
2018-11-23T09:16:52.843Z,76.67
2018-11-23T09:19:22.195Z,77.73
2018-11-23T09:21:51.545Z,77.37
2018-11-23T09:24:20.821Z,76.37
2018-11-23T09:26:50.133Z,76.10
2018-11-23T09:29:19.483Z,78.87
2018-11-23T09:31:48.788Z,76.50
2018-11-23T09:34:18.117Z,75.47
2018-11-23T09:36:47.570Z,72.60
2018-11-23T09:39:17.500Z,76.87
2018-11-23T09:41:47.783Z,76.70
2018-11-23T09:44:17.695Z,78.42
2018-11-23T09:46:47.759Z,72.72
2018-11-23T09:49:17.684Z,78.83
2018-11-23T09:51:47.945Z,71.82
2018-11-23T09:54:17.740Z,72.93
2018-11-23T09:56:48.233Z,71.60
2018-11-23T09:59:17.837Z,76.93
2018-11-23T10:01:48.022Z,72.58
2018-11-23T10:04:18.019Z,72.17
2018-11-23T10:06:48.005Z,75.72
2018-11-23T10:09:18.101Z,77.87
2018-11-23T10:11:48.080Z,78.35
2018-11-23T10:14:18.102Z,75.22
2018-11-23T10:16:48.015Z,76.83
2018-11-23T10:19:29.952Z,71.92
2018-11-23T10:21:59.258Z,78.83
2018-11-23T10:24:28.606Z,74.93
2018-11-23T10:26:57.890Z,74.87
2018-11-23T10:29:27.248Z,73.60
2018-11-23T10:31:56.527Z,74.57
2018-11-23T10:34:25.782Z,72.27
2018-11-23T10:36:55.216Z,72.35
2018-11-23T10:39:24.482Z,76.27
2018-11-23T10:41:53.753Z,77.77
2018-11-23T10:44:23.077Z,75.92
2018-11-23T10:46:52.544Z,72.72
2018-11-23T10:49:21.829Z,71.57
2018-11-23T10:51:51.091Z,79.37
2018-11-23T10:54:20.392Z,70.87
2018-11-23T10:56:49.671Z,72.20
2018-11-23T10:59:19.309Z,71.00
2018-11-23T11:01:54.399Z,71.50
2018-11-23T11:04:29.095Z,71.53
2018-11-23T11:07:02.545Z,75.33
2018-11-23T11:09:31.838Z,71.63
2018-11-23T11:12:01.139Z,73.73
2018-11-23T11:14:30.461Z,73.87
2018-11-23T11:16:59.717Z,71.70
2018-11-23T11:19:29.072Z,73.63
2018-11-23T11:21:58.359Z,72.03
2018-11-23T11:24:27.630Z,73.30
2018-11-23T11:26:56.905Z,69.53
2018-11-23T11:29:26.171Z,76.07
2018-11-23T11:31:55.480Z,78.53
2018-11-23T11:34:24.769Z,68.10
2018-11-23T11:36:54.104Z,70.00
2018-11-23T11:42:02.633Z,72.93
2018-11-23T11:44:31.942Z,76.23
2018-11-23T11:47:01.213Z,71.57
2018-11-23T11:49:30.509Z,68.33
2018-11-23T11:51:59.801Z,69.73
2018-11-23T11:54:29.170Z,72.83
2018-11-23T11:56:58.453Z,68.97
2018-11-23T11:59:27.774Z,70.75
2018-11-23T12:01:57.001Z,68.37
2018-11-23T12:04:26.291Z,79.07
2018-11-23T12:06:55.634Z,74.00
2018-11-23T12:09:24.952Z,71.47
2018-11-23T12:11:54.263Z,68.27
2018-11-23T12:14:23.551Z,72.60
2018-11-23T12:16:52.962Z,71.17
2018-11-23T12:19:22.296Z,71.40
2018-11-23T12:21:51.566Z,72.27
2018-11-23T12:24:20.970Z,67.77
2018-11-23T12:26:50.266Z,70.13
2018-11-23T12:29:20.746Z,76.47
2018-11-23T12:31:51.065Z,72.87
2018-11-23T12:34:20.669Z,75.32
2018-11-23T12:36:50.714Z,71.87
2018-11-23T12:39:20.956Z,70.16
2018-11-23T12:41:51.010Z,71.33
2018-11-23T12:44:20.956Z,68.17
2018-11-23T12:46:51.070Z,71.30
2018-11-23T12:49:21.372Z,89.13
2018-11-23T12:51:51.365Z,69.70
2018-11-23T12:54:21.344Z,65.32
2018-11-23T12:56:51.596Z,66.55
2018-11-23T12:59:21.395Z,68.02
2018-11-23T13:01:51.445Z,66.35
2018-11-23T13:04:21.506Z,65.17
2018-11-23T13:06:51.517Z,68.05
2018-11-23T13:09:21.473Z,69.20
2018-11-23T13:11:51.402Z,64.42
2018-11-23T13:14:21.421Z,66.77
2018-11-23T13:16:51.400Z,62.65
2018-11-23T13:19:21.534Z,72.58
2018-11-23T13:21:51.461Z,67.55
2018-11-23T13:24:21.458Z,64.62
2018-11-23T13:26:51.429Z,66.53
2018-11-23T13:29:21.695Z,67.47
2018-11-23T13:31:51.700Z,65.72
2018-11-23T13:34:21.697Z,67.20
2018-11-23T13:36:51.770Z,67.50
2018-11-23T13:39:21.691Z,70.08
2018-11-23T13:41:51.680Z,67.67
2018-11-23T13:44:21.769Z,64.47
2018-11-23T13:46:51.837Z,70.52
2018-11-23T13:49:22.258Z,68.37
2018-11-23T13:51:52.429Z,65.35
2018-11-23T13:54:22.327Z,71.80
2018-11-23T13:56:52.378Z,67.27
2018-11-23T13:59:22.713Z,78.94
2018-11-23T14:01:52.749Z,71.00
2018-11-23T14:04:22.800Z,76.13
2018-11-23T14:06:52.788Z,72.53
2018-11-23T14:09:22.818Z,78.42
2018-11-23T14:11:52.811Z,81.80
2018-11-23T14:14:22.831Z,85.00
2018-11-23T14:16:52.987Z,84.60
2018-11-23T14:19:29.567Z,94.25
2018-11-23T14:21:58.848Z,83.42
2018-11-23T14:24:28.112Z,75.00
2018-11-23T14:26:57.415Z,67.17
2018-11-23T14:29:26.699Z,65.67
2018-11-23T14:31:56.025Z,74.00
2018-11-23T14:34:25.476Z,71.23
2018-11-23T14:36:55.229Z,70.77
2018-11-23T14:39:24.454Z,71.47
2018-11-23T14:41:53.781Z,67.27
2018-11-23T14:44:23.262Z,73.40
2018-11-23T14:46:53.169Z,65.62
2018-11-23T14:49:23.072Z,72.10
2018-11-23T14:51:53.085Z,74.75
2018-11-23T14:54:23.115Z,69.15
2018-11-23T14:56:53.116Z,71.45
2018-11-23T14:59:23.123Z,70.95
2018-11-23T15:01:53.129Z,70.40
2018-11-23T15:04:23.254Z,65.78
2018-11-23T15:06:53.203Z,70.30
2018-11-23T15:09:23.259Z,74.17
2018-11-23T15:11:53.127Z,76.40
2018-11-23T15:14:23.203Z,70.10
2018-11-23T15:16:53.389Z,69.37
2018-11-23T15:19:23.504Z,68.52
2018-11-23T15:21:53.437Z,74.10
2018-11-23T15:29:21.215Z,63.23
2018-11-23T15:31:50.557Z,66.87
2018-11-23T15:34:19.948Z,64.63
2018-11-23T15:36:49.311Z,69.17
2018-11-23T15:39:18.619Z,73.20
2018-11-23T15:41:47.997Z,71.90
2018-11-23T15:44:17.258Z,70.27
2018-11-23T15:46:46.530Z,70.35
2018-11-23T15:49:15.896Z,75.63
2018-11-23T15:51:45.207Z,76.30
2018-11-23T15:54:14.520Z,68.00
2018-11-23T15:56:43.932Z,70.57
2018-11-23T15:59:13.644Z,70.30
2018-11-23T16:01:42.950Z,76.90
2018-11-23T16:04:12.264Z,72.23
2018-11-23T16:06:41.566Z,72.47
2018-11-23T16:09:13.791Z,69.03
2018-11-23T16:11:43.147Z,71.90
2018-11-23T16:14:12.409Z,77.47
2018-11-23T16:16:41.747Z,73.87
2018-11-23T16:19:11.078Z,73.47
2018-11-23T16:21:40.421Z,78.37
2018-11-23T16:24:09.702Z,78.20
2018-11-23T16:26:38.994Z,79.17
2018-11-23T16:29:08.323Z,71.90
2018-11-23T16:31:37.832Z,76.13
2018-11-23T16:34:07.163Z,74.77
2018-11-23T16:36:36.475Z,68.87
2018-11-23T16:39:09.431Z,68.50
2018-11-23T16:41:38.727Z,66.80
2018-11-23T16:44:08.073Z,72.07
2018-11-23T16:46:37.406Z,75.53
2018-11-23T16:49:06.705Z,70.63
2018-11-23T16:51:36.024Z,66.80
2018-11-23T16:54:05.473Z,66.67
2018-11-23T16:56:34.804Z,70.95
2018-11-23T16:59:04.082Z,68.00
2018-11-23T17:01:33.382Z,78.20
2018-11-23T17:04:02.758Z,73.03
2018-11-23T17:06:35.325Z,66.67
2018-11-23T17:09:05.864Z,72.40
2018-11-23T17:11:35.180Z,74.75
2018-11-23T17:14:04.585Z,74.40
2018-11-23T17:16:33.915Z,75.90
2018-11-23T17:19:03.265Z,69.20
2018-11-23T17:21:32.560Z,75.90
2018-11-23T17:24:01.940Z,68.10
2018-11-23T17:26:31.277Z,71.83
2018-11-23T17:29:00.594Z,66.90
2018-11-23T17:31:29.878Z,76.63
2018-11-23T17:33:59.175Z,72.60
2018-11-23T17:36:28.489Z,77.37
2018-11-23T17:38:57.804Z,72.63
2018-11-23T17:41:27.088Z,64.80
2018-11-23T17:43:56.388Z,76.17
2018-11-23T17:46:25.794Z,71.03
2018-11-23T17:48:55.608Z,67.15
2018-11-23T17:51:26.085Z,74.50
2018-11-23T17:53:57.696Z,70.10
2018-11-23T17:56:27.046Z,73.62
2018-11-23T17:58:56.354Z,76.97
2018-11-23T18:01:26.457Z,70.80
2018-11-23T18:03:56.467Z,73.02
2018-11-23T18:06:26.486Z,80.92
2018-11-23T18:08:56.531Z,76.02
2018-11-23T18:11:26.934Z,72.80
2018-11-23T18:13:56.890Z,70.45
2018-11-23T18:16:26.906Z,75.20
2018-11-23T18:18:56.871Z,74.85
2018-11-23T18:21:26.898Z,74.42
2018-11-23T18:23:56.939Z,69.97
2018-11-23T18:26:26.871Z,70.87
2018-11-23T18:28:56.891Z,74.22
2018-11-23T18:31:27.008Z,70.45
2018-11-23T18:33:57.043Z,71.25
2018-11-23T18:36:27.034Z,65.05
2018-11-23T18:38:57.160Z,76.12
2018-11-23T18:41:27.108Z,71.33
2018-11-23T18:43:57.128Z,77.90
2018-11-23T18:46:27.151Z,72.90
2018-11-23T18:48:57.223Z,74.47
2018-11-23T18:51:27.497Z,74.72
2018-11-23T18:53:57.478Z,72.08
2018-11-23T18:56:27.551Z,66.87
2018-11-23T18:58:57.622Z,71.92
2018-11-23T19:01:27.926Z,78.28
2018-11-23T19:03:57.975Z,70.28
2018-11-23T19:06:28.000Z,70.25
2018-11-23T19:08:57.991Z,80.45
2018-11-23T19:11:27.982Z,77.10
2018-11-23T19:13:58.109Z,77.25
2018-11-23T19:16:28.067Z,80.87
2018-11-23T19:18:58.108Z,84.22
2018-11-23T19:21:28.390Z,78.67
2018-11-23T19:23:58.285Z,83.00
2018-11-23T19:26:28.369Z,87.08
2018-11-23T19:28:58.370Z,87.47
2018-11-23T19:31:28.407Z,80.12
2018-11-23T19:33:59.387Z,83.22
2018-11-23T19:36:28.451Z,79.58
2018-11-23T19:38:58.476Z,74.67
2018-11-23T19:41:28.531Z,78.12
2018-11-23T19:43:58.494Z,81.60
2018-11-23T19:46:28.485Z,76.97
2018-11-23T19:48:58.534Z,81.90
2018-11-23T19:51:28.472Z,74.95
2018-11-23T19:53:58.551Z,73.85
2018-11-23T19:56:29.487Z,76.72
2018-11-23T19:58:58.985Z,79.87
2018-11-23T20:01:29.102Z,74.40
2018-11-23T20:03:59.195Z,76.70
2018-11-23T20:06:29.123Z,79.62
2018-11-23T20:08:59.165Z,75.65
2018-11-23T20:11:29.218Z,74.72
2018-11-23T20:13:59.197Z,72.65
2018-11-23T20:16:29.259Z,63.05
2018-11-23T20:18:59.407Z,71.25
2018-11-23T20:21:29.298Z,65.03
2018-11-23T20:23:59.322Z,68.37
2018-11-23T20:26:29.357Z,68.52
2018-11-23T20:28:59.492Z,65.12
2018-11-23T20:31:29.353Z,63.40
2018-11-23T20:33:59.413Z,64.97
2018-11-23T20:36:29.384Z,67.65
2018-11-23T20:38:59.898Z,68.63
2018-11-23T20:41:29.953Z,67.75
2018-11-23T20:43:59.981Z,68.55
2018-11-23T20:46:30.213Z,71.50
2018-11-23T20:49:00.054Z,69.05
2018-11-23T20:51:30.048Z,64.05
2018-11-23T20:54:00.051Z,67.55
2018-11-23T20:56:30.189Z,63.30
2018-11-23T20:59:00.010Z,67.40
2018-11-23T21:01:30.144Z,67.20
2018-11-23T21:04:00.158Z,64.58
2018-11-23T21:06:30.608Z,67.35
2018-11-23T21:09:00.597Z,66.17
2018-11-23T21:11:30.669Z,68.62
2018-11-23T21:14:00.478Z,67.47
2018-11-23T21:16:30.545Z,68.85
2018-11-23T21:19:00.915Z,68.12
2018-11-23T21:21:30.646Z,67.30
2018-11-23T21:24:00.625Z,74.45
2018-11-23T21:26:30.672Z,71.82
2018-11-23T21:29:05.447Z,68.35
2018-11-23T21:31:37.559Z,73.10
2018-11-23T21:34:07.011Z,73.30
2018-11-23T21:36:36.275Z,71.57
2018-11-23T21:39:13.692Z,69.97
2018-11-23T21:41:39.687Z,71.00
2018-11-23T21:44:08.981Z,74.37
2018-11-23T21:46:38.283Z,75.97
2018-11-23T21:49:07.589Z,75.07
2018-11-23T21:51:40.023Z,75.63
2018-11-23T21:54:09.339Z,75.75
2018-11-23T21:56:38.659Z,74.23
2018-11-23T21:59:07.939Z,79.23
2018-11-23T22:01:37.261Z,72.40
2018-11-23T22:04:06.922Z,76.57
2018-11-23T22:06:36.265Z,76.05
2018-11-23T22:09:08.047Z,69.75
2018-11-23T22:11:37.377Z,70.50
2018-11-23T22:14:06.699Z,68.60
2018-11-23T22:16:35.963Z,68.40
2018-11-23T22:19:05.534Z,65.30
2018-11-23T22:21:34.848Z,66.73
2018-11-23T22:24:04.182Z,68.63
2018-11-23T22:26:33.429Z,71.57
2018-11-23T22:29:02.694Z,71.55
2018-11-23T22:31:32.031Z,70.00
2018-11-23T22:34:01.888Z,67.27
2018-11-23T22:36:32.005Z,67.25
2018-11-23T22:39:01.937Z,70.10
2018-11-23T22:41:32.031Z,70.35
2018-11-23T22:44:02.007Z,66.72
2018-11-23T22:46:32.020Z,70.60
2018-11-23T22:49:02.117Z,67.87
2018-11-23T22:51:31.954Z,73.47
2018-11-23T22:54:02.130Z,66.37
2018-11-23T22:56:32.009Z,65.28
2018-11-23T22:59:02.093Z,69.87
2018-11-23T23:01:32.043Z,73.42
2018-11-23T23:04:02.162Z,69.25
2018-11-23T23:06:32.078Z,67.40
2018-11-23T23:09:02.170Z,69.03
2018-11-23T23:11:32.265Z,68.07
2018-11-23T23:14:02.180Z,60.45
2018-11-23T23:16:32.243Z,66.37
2018-11-23T23:19:02.194Z,66.25
2018-11-23T23:21:32.288Z,62.38
2018-11-23T23:24:02.240Z,61.37
2018-11-23T23:26:32.325Z,62.62
2018-11-23T23:29:02.299Z,58.60
2018-11-23T23:31:32.437Z,65.95
2018-11-23T23:34:02.331Z,67.72
2018-11-23T23:36:32.395Z,66.17
2018-11-23T23:39:02.324Z,67.45
2018-11-23T23:41:32.450Z,59.65
2018-11-23T23:44:02.396Z,55.83
2018-11-23T23:46:32.416Z,54.63
2018-11-23T23:49:02.471Z,61.25
2018-11-23T23:51:32.473Z,55.10
2018-11-23T23:54:02.523Z,62.88
2018-11-23T23:56:32.425Z,57.20
2018-11-23T23:59:02.574Z,58.25
